Time;durP1;ratioP1;P1;durP2;ratioP2;P2;SDS_P1;SDS_P2;PMS_P1;PMS_P2;Temp;Humidity;BMP_temperature;BMP_pressure;BME280_temperature;BME280_humidity;BME280_pressure;Samples;Min_cycle;Max_cycle;Signal;HPM_P1;HPM_P2
2023/10/26 00:02:14;;;;;;;8.00;1.83;;;;;;;;;;5061383;28;20144;-70
2023/10/26 00:05:54;;;;;;;10.40;1.92;;;;;;;;;;5067875;28;20052;-71
2023/10/26 00:09:34;;;;;;;8.13;1.80;;;;;;;;;;5056471;28;20040;-70
2023/10/26 00:13:15;;;;;;;10.70;1.98;;;;;;;;;;5069531;28;20071;-72
2023/10/26 00:16:55;;;;;;;9.25;2.08;;;;;;;;;;5058280;28;20056;-72
2023/10/26 00:20:35;;;;;;;10.18;2.10;;;;;;;;;;5061367;28;20060;-71
2023/10/26 00:24:16;;;;;;;6.57;1.60;;;;;;;;;;5061380;28;20048;-73
2023/10/26 00:27:58;;;;;;;7.15;2.00;;;;;;;;;;5068037;28;20036;-71
2023/10/26 00:31:37;;;;;;;10.18;2.08;;;;;;;;;;5063313;28;20503;-72
2023/10/26 00:35:17;;;;;;;10.80;1.83;;;;;;;;;;5069443;28;20048;-70
2023/10/26 00:38:58;;;;;;;10.20;2.45;;;;;;;;;;5070367;28;20131;-73
2023/10/26 00:42:38;;;;;;;8.98;1.88;;;;;;;;;;5057306;28;20195;-71
2023/10/26 00:46:18;;;;;;;11.55;2.00;;;;;;;;;;5057066;28;20045;-70
2023/10/26 00:49:59;;;;;;;9.00;2.15;;;;;;;;;;5054855;28;20040;-68
2023/10/26 00:53:40;;;;;;;9.35;2.22;;;;;;;;;;5072201;28;20464;-70
2023/10/26 00:57:19;;;;;;;8.73;2.25;;;;;;;;;;5058429;28;20111;-70
2023/10/26 01:01:00;;;;;;;7.30;1.90;;;;;;;;;;5060161;28;20041;-71
2023/10/26 01:04:40;;;;;;;10.30;2.10;;;;;;;;;;5060842;28;20067;-70
2023/10/26 01:08:21;;;;;;;9.38;2.35;;;;;;;;;;5072559;28;20044;-71
2023/10/26 01:12:01;;;;;;;12.32;1.95;;;;;;;;;;5065555;28;20048;-71
2023/10/26 01:15:41;;;;;;;9.90;2.28;;;;;;;;;;5058902;28;20464;-70
2023/10/26 01:19:21;;;;;;;11.93;2.63;;;;;;;;;;5060071;28;20146;-69
2023/10/26 01:23:03;;;;;;;8.18;1.95;;;;;;;;;;5066539;28;20072;-69
2023/10/26 01:26:43;;;;;;;9.80;2.00;;;;;;;;;;5068849;28;20059;-69
2023/10/26 01:30:25;;;;;;;11.88;2.22;;;;;;;;;;5066862;28;20048;-70
2023/10/26 01:34:06;;;;;;;14.38;2.65;;;;;;;;;;5069138;28;20040;-70
2023/10/26 01:37:46;;;;;;;8.77;1.95;;;;;;;;;;5066802;28;20048;-70
2023/10/26 01:41:29;;;;;;;10.93;1.95;;;;;;;;;;5067220;28;20048;-72
2023/10/26 01:45:09;;;;;;;10.50;2.10;;;;;;;;;;5061535;28;20442;-70
2023/10/26 01:48:49;;;;;;;10.32;1.85;;;;;;;;;;5064934;28;20084;-70
2023/10/26 01:52:30;;;;;;;11.07;2.42;;;;;;;;;;5059223;28;20040;-69
2023/10/26 01:56:11;;;;;;;9.50;2.30;;;;;;;;;;5053321;28;20075;-70
2023/10/26 01:59:55;;;;;;;10.98;2.03;;;;;;;;;;5064708;28;20044;-70
2023/10/26 02:03:32;;;;;;;8.02;1.88;;;;;;;;;;5084150;28;20139;-70
2023/10/26 02:07:12;;;;;;;8.60;1.73;;;;;;;;;;5059480;28;20044;-71
2023/10/26 02:10:53;;;;;;;13.57;2.17;;;;;;;;;;5069543;28;20488;-71
2023/10/26 02:14:33;;;;;;;11.50;2.30;;;;;;;;;;5064550;28;20041;-69
2023/10/26 02:18:13;;;;;;;10.20;1.92;;;;;;;;;;5064790;28;20056;-70
2023/10/26 02:21:54;;;;;;;9.50;2.42;;;;;;;;;;5060260;28;20044;-69
2023/10/26 02:25:37;;;;;;;11.63;1.95;;;;;;;;;;5062967;28;20129;-72
2023/10/26 02:29:17;;;;;;;10.18;2.13;;;;;;;;;;5060812;28;20056;-72
2023/10/26 02:32:59;;;;;;;12.98;2.50;;;;;;;;;;5065738;28;20106;-71
2023/10/26 02:36:40;;;;;;;15.02;2.17;;;;;;;;;;5065145;28;20052;-70
2023/10/26 02:40:21;;;;;;;8.70;2.20;;;;;;;;;;5068251;28;20052;-70
2023/10/26 02:44:01;;;;;;;11.55;2.38;;;;;;;;;;5066832;28;20052;-71
2023/10/26 02:47:42;;;;;;;6.07;1.40;;;;;;;;;;5064268;28;20548;-70
2023/10/26 02:51:22;;;;;;;11.85;1.95;;;;;;;;;;5064468;28;20072;-72
2023/10/26 02:55:03;;;;;;;10.57;2.33;;;;;;;;;;5064572;28;20611;-70
2023/10/26 02:58:43;;;;;;;12.60;2.20;;;;;;;;;;5058666;28;20049;-70
2023/10/26 03:02:24;;;;;;;11.85;1.98;;;;;;;;;;5053586;28;20056;-70
2023/10/26 03:06:04;;;;;;;8.85;2.00;;;;;;;;;;5061892;28;20488;-68
2023/10/26 03:09:45;;;;;;;9.93;2.17;;;;;;;;;;5058393;28;20052;-69
2023/10/26 03:13:26;;;;;;;7.78;1.73;;;;;;;;;;5059746;28;20412;-70
2023/10/26 03:17:06;;;;;;;9.85;2.05;;;;;;;;;;5057319;28;20067;-70
2023/10/26 03:20:47;;;;;;;6.70;1.92;;;;;;;;;;5061107;28;20048;-71
2023/10/26 03:24:27;;;;;;;6.35;1.83;;;;;;;;;;5067333;28;20238;-69
2023/10/26 03:28:07;;;;;;;10.05;1.95;;;;;;;;;;5060734;28;20103;-71
2023/10/26 03:31:51;;;;;;;6.63;1.92;;;;;;;;;;5057710;28;20048;-71
2023/10/26 03:35:31;;;;;;;10.35;1.85;;;;;;;;;;5064967;28;20371;-71
2023/10/26 03:39:12;;;;;;;8.68;2.20;;;;;;;;;;5065829;28;20033;-69
2023/10/26 03:42:52;;;;;;;4.70;1.63;;;;;;;;;;5059522;28;20048;-70
2023/10/26 03:46:32;;;;;;;9.95;2.00;;;;;;;;;;5060500;28;20062;-69
2023/10/26 03:50:13;;;;;;;7.05;1.70;;;;;;;;;;5063188;28;20047;-70
2023/10/26 03:53:53;;;;;;;9.25;1.92;;;;;;;;;;5061490;28;20059;-70
2023/10/26 03:57:33;;;;;;;12.55;1.70;;;;;;;;;;5065864;28;20119;-70
2023/10/26 04:01:15;;;;;;;7.25;1.70;;;;;;;;;;5053890;28;20138;-69
2023/10/26 04:04:55;;;;;;;9.88;1.80;;;;;;;;;;5062883;28;20053;-69
2023/10/26 04:08:37;;;;;;;10.10;2.35;;;;;;;;;;5053877;28;20391;-69
2023/10/26 04:12:17;;;;;;;8.05;2.10;;;;;;;;;;5067943;28;20462;-71
2023/10/26 04:15:58;;;;;;;6.85;1.77;;;;;;;;;;5059821;28;20080;-69
2023/10/26 04:19:38;;;;;;;7.28;1.75;;;;;;;;;;5059578;28;20090;-70
2023/10/26 04:23:18;;;;;;;7.40;1.88;;;;;;;;;;5061981;28;20040;-69
2023/10/26 04:26:59;;;;;;;9.48;1.80;;;;;;;;;;5065369;28;20055;-70
2023/10/26 04:30:39;;;;;;;8.20;1.92;;;;;;;;;;5063496;28;20051;-70
2023/10/26 04:34:19;;;;;;;9.07;1.90;;;;;;;;;;5064138;28;20415;-70
2023/10/26 04:37:38;;;;;;;7.53;1.95;;;;;;;;;;5058862;28;20051;-70
2023/10/26 04:40:06;;;;;;;7.93;1.63;;;;;;;;;;5065543;28;20512;-70
2023/10/26 04:42:32;;;;;;;11.40;1.92;;;;;;;;;;5056899;28;20049;-69
2023/10/26 04:44:59;;;;;;;8.45;2.45;;;;;;;;;;5067203;28;20580;-70
2023/10/26 04:47:25;;;;;;;9.02;2.25;;;;;;;;;;5066687;28;20127;-71
2023/10/26 04:49:51;;;;;;;12.32;2.25;;;;;;;;;;5064851;28;20126;-71
2023/10/26 04:52:19;;;;;;;10.80;2.03;;;;;;;;;;5069290;28;20052;-71
2023/10/26 04:54:47;;;;;;;12.20;2.35;;;;;;;;;;5069478;28;20527;-69
2023/10/26 04:57:13;;;;;;;5.80;2.15;;;;;;;;;;5073959;28;20424;-69
2023/10/26 04:59:39;;;;;;;12.30;1.83;;;;;;;;;;5059989;28;20043;-71
2023/10/26 05:02:07;;;;;;;12.38;2.42;;;;;;;;;;5067777;28;20048;-69
2023/10/26 05:04:33;;;;;;;15.65;2.53;;;;;;;;;;5062158;28;20045;-70
2023/10/26 05:06:58;;;;;;;10.00;1.95;;;;;;;;;;5059695;28;20040;-69
2023/10/26 05:09:29;;;;;;;12.30;2.15;;;;;;;;;;5054744;28;20041;-69
2023/10/26 05:11:55;;;;;;;14.60;2.58;;;;;;;;;;5059479;28;20074;-69
2023/10/26 05:14:22;;;;;;;7.45;1.67;;;;;;;;;;5057268;28;20405;-70
2023/10/26 05:16:50;;;;;;;15.23;2.67;;;;;;;;;;5063872;28;20223;-70
2023/10/26 05:19:17;;;;;;;13.77;2.67;;;;;;;;;;5062119;28;20045;-71
2023/10/26 05:21:43;;;;;;;7.65;1.95;;;;;;;;;;5067418;28;20052;-70
2023/10/26 05:24:09;;;;;;;9.35;1.90;;;;;;;;;;5061638;28;20052;-73
2023/10/26 05:26:36;;;;;;;10.63;2.40;;;;;;;;;;5063332;28;20498;-71
2023/10/26 05:29:03;;;;;;;17.30;2.70;;;;;;;;;;5075441;28;20075;-70
2023/10/26 05:31:30;;;;;;;9.25;1.98;;;;;;;;;;5070108;28;20068;-69
2023/10/26 05:34:36;;;;;;;6.57;1.65;;;;;;;;;;5068769;28;20040;-69
2023/10/26 05:38:19;;;;;;;10.77;2.03;;;;;;;;;;5065566;28;20048;-70
2023/10/26 05:41:58;;;;;;;6.43;1.70;;;;;;;;;;5061654;28;20052;-71
2023/10/26 05:45:39;;;;;;;9.00;1.92;;;;;;;;;;5061862;28;20108;-72
2023/10/26 05:49:19;;;;;;;6.65;1.98;;;;;;;;;;5057600;28;20048;-72
2023/10/26 05:52:59;;;;;;;5.78;1.65;;;;;;;;;;5059832;28;20093;-71
2023/10/26 05:56:40;;;;;;;10.00;2.00;;;;;;;;;;5062725;28;20094;-73
2023/10/26 06:00:20;;;;;;;9.88;1.75;;;;;;;;;;5056410;28;20040;-73
2023/10/26 06:04:00;;;;;;;8.50;2.00;;;;;;;;;;5059508;28;20078;-70
2023/10/26 06:07:41;;;;;;;11.32;3.17;;;;;;;;;;5060789;28;20047;-73
2023/10/26 06:11:21;;;;;;;5.47;1.60;;;;;;;;;;5061713;28;20037;-73
2023/10/26 06:15:01;;;;;;;10.95;1.80;;;;;;;;;;5068442;28;20076;-70
2023/10/26 06:18:42;;;;;;;8.45;1.70;;;;;;;;;;5057647;28;20080;-73
2023/10/26 06:22:22;;;;;;;11.40;1.80;;;;;;;;;;5065595;28;20055;-70
2023/10/26 06:26:03;;;;;;;8.00;2.03;;;;;;;;;;5065359;28;20090;-70
2023/10/26 06:29:44;;;;;;;10.27;2.50;;;;;;;;;;5062207;28;20053;-71
2023/10/26 06:33:25;;;;;;;11.00;1.90;;;;;;;;;;5063329;28;20580;-72
2023/10/26 06:37:04;;;;;;;9.20;1.90;;;;;;;;;;5058205;28;20122;-73
2023/10/26 06:40:47;;;;;;;12.75;2.38;;;;;;;;;;5061895;28;20221;-71
2023/10/26 06:44:28;;;;;;;6.50;1.70;;;;;;;;;;5057356;28;20040;-72
2023/10/26 06:48:08;;;;;;;16.45;2.00;;;;;;;;;;5064531;28;20156;-70
2023/10/26 06:51:49;;;;;;;8.98;1.90;;;;;;;;;;5055420;28;20059;-71
2023/10/26 06:55:32;;;;;;;7.60;1.77;;;;;;;;;;5071047;28;20047;-70
2023/10/26 06:59:13;;;;;;;10.10;2.00;;;;;;;;;;5057341;28;20040;-75
2023/10/26 07:02:54;;;;;;;11.40;1.80;;;;;;;;;;5052739;28;20285;-71
2023/10/26 07:06:34;;;;;;;9.55;2.00;;;;;;;;;;5064165;28;20521;-72
2023/10/26 07:10:16;;;;;;;9.77;1.77;;;;;;;;;;5077390;28;20154;-72
2023/10/26 07:13:56;;;;;;;8.80;1.83;;;;;;;;;;5051138;28;20044;-71
2023/10/26 07:17:38;;;;;;;10.90;2.10;;;;;;;;;;5060572;28;20067;-75
2023/10/26 07:21:18;;;;;;;11.18;1.80;;;;;;;;;;5063421;28;20059;-71
2023/10/26 07:24:58;;;;;;;7.43;1.70;;;;;;;;;;5059015;28;20492;-74
2023/10/26 07:28:42;;;;;;;6.40;1.67;;;;;;;;;;5054721;28;20044;-71
2023/10/26 07:32:24;;;;;;;10.35;2.05;;;;;;;;;;5062801;28;20052;-72
2023/10/26 07:36:08;;;;;;;9.23;2.05;;;;;;;;;;5072157;28;20326;-75
2023/10/26 07:39:48;;;;;;;6.75;1.73;;;;;;;;;;5066206;28;20241;-71
2023/10/26 07:43:30;;;;;;;12.93;2.42;;;;;;;;;;5063886;28;20110;-71
2023/10/26 07:47:12;;;;;;;7.72;1.95;;;;;;;;;;5059633;28;20051;-71
2023/10/26 07:50:52;;;;;;;7.53;2.08;;;;;;;;;;5067670;28;20469;-70
2023/10/26 07:54:32;;;;;;;9.13;1.92;;;;;;;;;;5077385;28;20095;-71
2023/10/26 07:58:14;;;;;;;7.55;2.17;;;;;;;;;;5061875;28;20139;-70
2023/10/26 08:01:54;;;;;;;11.43;1.95;;;;;;;;;;5059720;28;20510;-70
2023/10/26 08:04:56;;;;;;;6.70;1.63;;;;;;;;;;5058281;28;20064;-71
2023/10/26 08:07:22;;;;;;;8.35;1.38;;;;;;;;;;5050297;28;20097;-70
2023/10/26 08:09:50;;;;;;;9.85;1.70;;;;;;;;;;5067379;28;20135;-71
2023/10/26 08:12:17;;;;;;;11.15;1.95;;;;;;;;;;5069503;28;20086;-70
2023/10/26 08:14:46;;;;;;;5.30;1.70;;;;;;;;;;5045887;28;20370;-71
2023/10/26 08:17:14;;;;;;;10.25;1.98;;;;;;;;;;5046617;28;20109;-71
2023/10/26 08:19:40;;;;;;;8.13;1.85;;;;;;;;;;5066611;28;20683;-69
2023/10/26 08:22:07;;;;;;;9.63;1.90;;;;;;;;;;5059654;28;20242;-70
2023/10/26 08:24:34;;;;;;;10.40;2.10;;;;;;;;;;5057914;28;20064;-70
2023/10/26 08:27:00;;;;;;;5.85;1.50;;;;;;;;;;5075010;28;20044;-73
2023/10/26 08:29:28;;;;;;;10.50;1.85;;;;;;;;;;5062074;28;20177;-70
2023/10/26 08:31:54;;;;;;;7.82;1.88;;;;;;;;;;5064526;28;20049;-69
2023/10/26 08:34:22;;;;;;;7.70;1.70;;;;;;;;;;5068296;28;20140;-69
2023/10/26 08:36:48;;;;;;;11.52;1.92;;;;;;;;;;5066895;28;20048;-70
2023/10/26 08:39:16;;;;;;;8.10;1.92;;;;;;;;;;5064138;28;20053;-69
2023/10/26 08:41:57;;;;;;;5.95;1.40;;;;;;;;;;5065440;28;20052;-69
2023/10/26 08:44:25;;;;;;;5.65;1.50;;;;;;;;;;5051661;28;20044;-69
2023/10/26 08:46:57;;;;;;;6.75;1.45;;;;;;;;;;5064693;28;20118;-70
2023/10/26 08:49:28;;;;;;;5.00;1.20;;;;;;;;;;5061529;28;20289;-69
2023/10/26 08:51:55;;;;;;;6.05;1.20;;;;;;;;;;5066025;28;20454;-70
2023/10/26 08:54:21;;;;;;;7.72;1.35;;;;;;;;;;5065538;28;20140;-70
2023/10/26 08:56:47;;;;;;;7.05;1.42;;;;;;;;;;5055769;28;20108;-70
2023/10/26 08:59:13;;;;;;;6.43;1.23;;;;;;;;;;5061440;28;20139;-67
2023/10/26 09:01:46;;;;;;;10.85;1.65;;;;;;;;;;5066747;28;20052;-70
2023/10/26 09:04:13;;;;;;;9.80;2.17;;;;;;;;;;5058360;28;20119;-70
2023/10/26 09:06:48;;;;;;;6.85;1.25;;;;;;;;;;5063404;28;20413;-78
2023/10/26 09:09:16;;;;;;;13.25;1.63;;;;;;;;;;5074824;28;20067;-71
2023/10/26 09:11:48;;;;;;;11.38;1.60;;;;;;;;;;5077474;28;20532;-69
2023/10/26 09:14:19;;;;;;;9.52;1.42;;;;;;;;;;5052973;28;20044;-69
2023/10/26 09:16:49;;;;;;;6.85;1.58;;;;;;;;;;5079255;28;20058;-70
2023/10/26 09:19:18;;;;;;;6.38;1.70;;;;;;;;;;5066274;28;20056;-68
2023/10/26 09:21:57;;;;;;;5.60;1.20;;;;;;;;;;5070181;28;20053;-69
2023/10/26 09:24:26;;;;;;;9.05;1.40;;;;;;;;;;5068600;28;20059;-70
2023/10/26 09:26:58;;;;;;;4.13;1.00;;;;;;;;;;5060517;28;20041;-70
2023/10/26 09:29:41;;;;;;;7.85;1.30;;;;;;;;;;5057210;28;20053;-70
2023/10/26 09:32:11;;;;;;;;;;;;;;;;;;5068099;28;20372;-70
2023/10/26 09:34:42;;;;;;;7.22;1.30;;;;;;;;;;5067570;28;20049;-70
2023/10/26 09:37:09;;;;;;;4.60;1.00;;;;;;;;;;5057379;28;20056;-69
2023/10/26 09:39:38;;;;;;;7.53;1.15;;;;;;;;;;5059858;28;20048;-71
2023/10/26 09:42:11;;;;;;;7.72;1.00;;;;;;;;;;5076735;28;20493;-71
2023/10/26 09:44:39;;;;;;;5.88;1.20;;;;;;;;;;5060085;28;20059;-69
2023/10/26 09:47:06;;;;;;;3.15;1.08;;;;;;;;;;5063218;28;20522;-69
2023/10/26 09:49:33;;;;;;;4.03;1.20;;;;;;;;;;5057970;28;20052;-68
2023/10/26 09:51:59;;;;;;;2.65;0.98;;;;;;;;;;5059583;28;20059;-69
2023/10/26 09:54:31;;;;;;;3.47;1.00;;;;;;;;;;5066879;28;20035;-71
2023/10/26 09:57:14;;;;;;;6.20;0.95;;;;;;;;;;5067002;28;20049;-71
2023/10/26 09:59:43;;;;;;;9.02;1.15;;;;;;;;;;5077423;28;20090;-68
2023/10/26 10:02:15;;;;;;;4.68;1.00;;;;;;;;;;5054513;28;20059;-69
2023/10/26 10:04:43;;;;;;;9.63;1.40;;;;;;;;;;5051421;28;20407;-69
2023/10/26 10:07:39;;;;;;;6.32;1.60;;;;;;;;;;5071236;28;20048;-70
2023/10/26 10:10:07;;;;;;;2.10;0.90;;;;;;;;;;5050283;28;20117;-72
2023/10/26 10:12:38;;;;;;;3.67;0.80;;;;;;;;;;5069941;28;20051;-70
2023/10/26 10:15:09;;;;;;;3.75;1.00;;;;;;;;;;5058631;28;20056;-70
2023/10/26 10:18:03;;;;;;;4.10;0.88;;;;;;;;;;5057632;28;20131;-68
2023/10/26 10:20:32;;;;;;;1.55;0.68;;;;;;;;;;5063826;28;20354;-69
2023/10/26 10:23:03;;;;;;;5.72;1.20;;;;;;;;;;5069527;28;20040;-73
2023/10/26 10:25:51;;;;;;;2.88;0.90;;;;;;;;;;5068231;28;20048;-72
2023/10/26 10:28:21;;;;;;;5.57;0.90;;;;;;;;;;5054409;28;20652;-73
2023/10/26 10:31:00;;;;;;;3.15;0.98;;;;;;;;;;5071860;28;20059;-73
2023/10/26 10:33:28;;;;;;;2.05;0.80;;;;;;;;;;5064678;28;20057;-71
2023/10/26 10:36:02;;;;;;;1.45;0.80;;;;;;;;;;5065779;28;20110;-74
2023/10/26 10:39:08;;;;;;;2.40;0.82;;;;;;;;;;5065854;28;20059;-77
2023/10/26 10:42:49;;;;;;;5.07;0.75;;;;;;;;;;5068268;28;20133;-74
2023/10/26 10:46:37;;;;;;;4.78;0.98;;;;;;;;;;5069296;28;20056;-73
2023/10/26 10:50:32;;;;;;;6.55;0.90;;;;;;;;;;5066239;28;20048;-78
2023/10/26 10:54:14;;;;;;;1.63;0.70;;;;;;;;;;5058120;28;20041;-76
2023/10/26 10:57:55;;;;;;;2.80;0.52;;;;;;;;;;5064241;28;20049;-77
2023/10/26 11:01:39;;;;;;;2.88;0.90;;;;;;;;;;5066973;28;20044;-77
2023/10/26 11:05:16;;;;;;;2.47;0.77;;;;;;;;;;5056390;28;20045;-77
2023/10/26 11:08:59;;;;;;;2.38;0.50;;;;;;;;;;5067455;28;20136;-77
2023/10/26 11:12:51;;;;;;;4.93;0.65;;;;;;;;;;5062086;28;20730;-78
2023/10/26 11:16:36;;;;;;;1.70;0.50;;;;;;;;;;5060906;28;20036;-77
2023/10/26 11:19:21;;;;;;;4.05;0.57;;;;;;;;;;5067480;28;20060;-77
2023/10/26 11:21:55;;;;;;;2.53;0.47;;;;;;;;;;5066214;28;20053;-74
2023/10/26 11:24:31;;;;;;;4.35;0.90;;;;;;;;;;5070297;28;20079;-76
2023/10/26 11:27:21;;;;;;;5.55;0.60;;;;;;;;;;5070845;28;20131;-76
2023/10/26 11:30:09;;;;;;;2.75;0.32;;;;;;;;;;5071543;28;20139;-76
2023/10/26 11:32:35;;;;;;;5.35;0.60;;;;;;;;;;5063188;28;20418;-77
2023/10/26 11:35:13;;;;;;;8.18;0.47;;;;;;;;;;5066593;28;20048;-76
2023/10/26 11:37:46;;;;;;;1.55;0.43;;;;;;;;;;5067789;28;20056;-75
2023/10/26 11:40:14;;;;;;;1.48;0.60;;;;;;;;;;5059768;28;20070;-77
2023/10/26 11:42:53;;;;;;;4.55;0.57;;;;;;;;;;5067894;28;20060;-76
2023/10/26 11:45:25;;;;;;;2.33;0.60;;;;;;;;;;5064198;28;20045;-76
2023/10/26 11:47:57;;;;;;;3.92;0.70;;;;;;;;;;5062984;28;20236;-75
2023/10/26 11:50:35;;;;;;;3.53;0.60;;;;;;;;;;5067424;28;20485;-77
2023/10/26 11:53:03;;;;;;;7.15;1.10;;;;;;;;;;5069240;28;20045;-77
2023/10/26 11:55:33;;;;;;;2.80;0.60;;;;;;;;;;5068653;28;20052;-76
2023/10/26 11:58:04;;;;;;;2.65;0.70;;;;;;;;;;5057432;28;20055;-76
2023/10/26 12:00:31;;;;;;;1.95;0.65;;;;;;;;;;5069321;28;20041;-76
2023/10/26 12:02:59;;;;;;;4.82;0.68;;;;;;;;;;5060817;28;20044;-75
2023/10/26 12:05:26;;;;;;;3.35;0.45;;;;;;;;;;5041755;28;20056;-76
2023/10/26 12:07:54;;;;;;;4.10;0.70;;;;;;;;;;5064506;28;20498;-78
2023/10/26 12:10:24;;;;;;;3.72;0.70;;;;;;;;;;5068342;28;20063;-79
2023/10/26 12:12:50;;;;;;;5.68;0.93;;;;;;;;;;5052888;28;20139;-76
2023/10/26 12:15:18;;;;;;;4.18;0.50;;;;;;;;;;5066008;28;20159;-77
2023/10/26 12:17:46;;;;;;;4.53;0.57;;;;;;;;;;5066541;28;20048;-75
2023/10/26 12:20:13;;;;;;;1.95;0.50;;;;;;;;;;5072669;28;20224;-76
2023/10/26 12:23:19;;;;;;;4.15;1.20;;;;;;;;;;5069580;28;20049;-76
2023/10/26 12:26:59;;;;;;;2.35;0.80;;;;;;;;;;5064979;28;20041;-74
2023/10/26 12:30:40;;;;;;;4.07;0.85;;;;;;;;;;5058149;28;20066;-76
2023/10/26 12:33:40;;;;;;;3.35;0.82;;;;;;;;;;5054374;28;20041;-78
2023/10/26 12:36:06;;;;;;;8.50;0.70;;;;;;;;;;5065269;28;20412;-79
2023/10/26 12:38:33;;;;;;;5.07;1.00;;;;;;;;;;5070609;28;20045;-78
2023/10/26 12:41:02;;;;;;;6.57;0.80;;;;;;;;;;5066776;28;20123;-77
2023/10/26 12:43:28;;;;;;;7.65;0.70;;;;;;;;;;5071602;28;20189;-79
2023/10/26 12:45:54;;;;;;;3.63;0.80;;;;;;;;;;5073256;28;20072;-78
2023/10/26 12:48:22;;;;;;;3.00;0.95;;;;;;;;;;5070632;28;20496;-78
2023/10/26 12:50:54;;;;;;;3.10;0.80;;;;;;;;;;5067149;28;20363;-76
2023/10/26 12:53:21;;;;;;;8.73;0.60;;;;;;;;;;5064743;28;20045;-74
2023/10/26 12:55:47;;;;;;;1.25;0.70;;;;;;;;;;5070500;28;20606;-80
2023/10/26 12:58:15;;;;;;;1.98;0.70;;;;;;;;;;5079128;28;20054;-77
2023/10/26 13:00:41;;;;;;;2.70;0.65;;;;;;;;;;5076737;28;20055;-77
2023/10/26 13:03:08;;;;;;;4.03;0.60;;;;;;;;;;5060847;28;20047;-83
2023/10/26 13:05:34;;;;;;;1.83;0.43;;;;;;;;;;5072260;28;20053;-76
2023/10/26 13:08:01;;;;;;;1.38;0.65;;;;;;;;;;5070887;28;20414;-77
2023/10/26 13:10:27;;;;;;;1.60;0.70;;;;;;;;;;5069968;28;20052;-78
2023/10/26 13:12:56;;;;;;;1.95;0.73;;;;;;;;;;5068222;28;20053;-77
2023/10/26 13:15:25;;;;;;;0.85;0.57;;;;;;;;;;5071032;28;20068;-76
2023/10/26 13:18:05;;;;;;;2.95;0.70;;;;;;;;;;5070644;28;20113;-76
2023/10/26 13:20:33;;;;;;;3.92;0.65;;;;;;;;;;5072159;28;20109;-76
2023/10/26 13:23:00;;;;;;;2.55;0.88;;;;;;;;;;5079776;28;20044;-77
2023/10/26 13:25:27;;;;;;;2.42;0.40;;;;;;;;;;5060203;28;20051;-77
2023/10/26 13:27:53;;;;;;;0.75;0.40;;;;;;;;;;5075803;28;20064;-77
2023/10/26 13:30:22;;;;;;;1.08;0.70;;;;;;;;;;5084494;28;20045;-77
2023/10/26 13:32:49;;;;;;;1.23;0.40;;;;;;;;;;5072462;28;20045;-76
2023/10/26 13:35:17;;;;;;;3.10;0.60;;;;;;;;;;5082713;28;20048;-75
2023/10/26 13:37:44;;;;;;;0.52;0.40;;;;;;;;;;5082868;28;20496;-76
2023/10/26 13:40:10;;;;;;;2.92;0.65;;;;;;;;;;5087318;28;20069;-76
2023/10/26 13:42:37;;;;;;;3.50;0.57;;;;;;;;;;5079181;28;20052;-77
2023/10/26 13:45:03;;;;;;;2.75;0.55;;;;;;;;;;5084101;28;20048;-76
2023/10/26 13:47:32;;;;;;;1.60;0.50;;;;;;;;;;5082739;28;20052;-75
2023/10/26 13:49:58;;;;;;;3.45;0.98;;;;;;;;;;5076029;28;20144;-78
2023/10/26 13:52:24;;;;;;;5.30;0.75;;;;;;;;;;5075118;28;20050;-77
2023/10/26 13:54:51;;;;;;;3.67;0.52;;;;;;;;;;5068884;28;20061;-77
2023/10/26 13:57:16;;;;;;;1.55;0.40;;;;;;;;;;5073308;28;20139;-77
2023/10/26 13:59:43;;;;;;;4.05;0.47;;;;;;;;;;5070012;28;20049;-79
2023/10/26 14:02:08;;;;;;;5.50;0.85;;;;;;;;;;5069894;28;20052;-77
2023/10/26 14:04:35;;;;;;;2.60;0.40;;;;;;;;;;5069987;28;20057;-77
2023/10/26 14:07:01;;;;;;;2.83;0.40;;;;;;;;;;5066781;28;20105;-79
2023/10/26 14:09:31;;;;;;;2.47;0.77;;;;;;;;;;5055967;28;20821;-80
2023/10/26 14:12:01;;;;;;;1.80;0.47;;;;;;;;;;5058334;28;20045;-77
2023/10/26 14:14:32;;;;;;;0.98;0.38;;;;;;;;;;5083875;28;20075;-77
2023/10/26 14:16:58;;;;;;;2.08;0.40;;;;;;;;;;5074331;28;20048;-77
2023/10/26 14:19:26;;;;;;;1.23;0.38;;;;;;;;;;5062536;28;20060;-76
2023/10/26 14:21:52;;;;;;;0.43;0.38;;;;;;;;;;5076482;28;20052;-76
2023/10/26 14:24:19;;;;;;;9.88;0.75;;;;;;;;;;5070428;28;20037;-79
2023/10/26 14:26:44;;;;;;;0.52;0.50;;;;;;;;;;5067652;28;20059;-76
2023/10/26 14:29:11;;;;;;;2.17;0.65;;;;;;;;;;5047159;28;20564;-77
2023/10/26 14:31:36;;;;;;;1.48;0.50;;;;;;;;;;5074808;28;20135;-76
2023/10/26 14:34:03;;;;;;;4.80;0.70;;;;;;;;;;5062833;28;20091;-75
2023/10/26 14:36:29;;;;;;;0.90;0.52;;;;;;;;;;5068977;28;20060;-77
2023/10/26 14:38:56;;;;;;;2.67;0.52;;;;;;;;;;5067646;28;20048;-75
2023/10/26 14:41:22;;;;;;;4.78;0.47;;;;;;;;;;5065105;28;20110;-78
2023/10/26 14:43:49;;;;;;;5.13;0.50;;;;;;;;;;5065650;28;20058;-78
2023/10/26 14:46:17;;;;;;;2.88;0.55;;;;;;;;;;5057471;28;20409;-79
2023/10/26 14:48:48;;;;;;;3.35;0.70;;;;;;;;;;5060824;28;20049;-79
2023/10/26 14:51:15;;;;;;;2.65;0.70;;;;;;;;;;5060109;28;20075;-80
2023/10/26 14:53:44;;;;;;;2.67;0.50;;;;;;;;;;5045951;28;20112;-79
2023/10/26 14:56:09;;;;;;;9.52;1.00;;;;;;;;;;5067709;28;20488;-80
2023/10/26 14:58:36;;;;;;;1.83;0.68;;;;;;;;;;5060315;28;20539;-77
2023/10/26 15:01:02;;;;;;;1.60;0.50;;;;;;;;;;5061704;28;20080;-78
2023/10/26 15:03:32;;;;;;;6.75;0.75;;;;;;;;;;5059467;28;20044;-81
2023/10/26 15:06:00;;;;;;;2.17;0.63;;;;;;;;;;5076132;28;20180;-77
2023/10/26 15:08:29;;;;;;;2.15;0.70;;;;;;;;;;5066785;28;20037;-77
2023/10/26 15:10:56;;;;;;;4.80;0.85;;;;;;;;;;5060731;28;20119;-78
2023/10/26 15:13:25;;;;;;;2.78;0.70;;;;;;;;;;5063825;28;20048;-79
2023/10/26 15:15:59;;;;;;;6.07;0.93;;;;;;;;;;5066745;28;20060;-74
2023/10/26 15:18:27;;;;;;;5.88;0.70;;;;;;;;;;5078001;28;20051;-80
2023/10/26 15:20:53;;;;;;;2.10;0.60;;;;;;;;;;5080470;28;20109;-77
2023/10/26 15:23:20;;;;;;;4.40;0.65;;;;;;;;;;5064322;28;20110;-79
2023/10/26 15:25:49;;;;;;;2.15;0.80;;;;;;;;;;5063233;28;20072;-78
2023/10/26 15:28:16;;;;;;;2.33;0.60;;;;;;;;;;5062715;28;20247;-78
2023/10/26 15:30:42;;;;;;;4.80;0.65;;;;;;;;;;5067586;28;20044;-79
2023/10/26 15:33:10;;;;;;;7.22;1.15;;;;;;;;;;5065382;28;20048;-78
2023/10/26 15:35:37;;;;;;;3.70;0.75;;;;;;;;;;5068846;28;20055;-80
2023/10/26 15:38:03;;;;;;;3.65;0.70;;;;;;;;;;5067709;28;20056;-79
2023/10/26 15:40:30;;;;;;;4.40;1.27;;;;;;;;;;5066756;28;20106;-79
2023/10/26 15:42:56;;;;;;;1.50;0.77;;;;;;;;;;5063191;28;20808;-80
2023/10/26 15:45:23;;;;;;;1.33;0.45;;;;;;;;;;5070329;28;20091;-80
2023/10/26 15:47:53;;;;;;;0.68;0.60;;;;;;;;;;5050067;28;21447;-79
2023/10/26 15:50:21;;;;;;;1.27;0.50;;;;;;;;;;5051308;28;20079;-79
2023/10/26 15:52:47;;;;;;;2.72;0.82;;;;;;;;;;5051096;28;20483;-80
2023/10/26 15:55:13;;;;;;;4.70;0.63;;;;;;;;;;5046574;28;20152;-82
2023/10/26 15:58:22;;;;;;;6.03;0.80;;;;;;;;;;5024620;28;20386;-79
2023/10/26 16:02:03;;;;;;;3.58;0.70;;;;;;;;;;5041549;28;20052;-78
2023/10/26 16:05:43;;;;;;;2.08;0.60;;;;;;;;;;5043313;28;20059;-77
2023/10/26 16:09:24;;;;;;;2.05;0.68;;;;;;;;;;5039030;28;20090;-79
2023/10/26 16:13:05;;;;;;;4.68;0.95;;;;;;;;;;5052923;28;20046;-82
2023/10/26 16:16:45;;;;;;;2.28;0.70;;;;;;;;;;5045135;28;20411;-78
2023/10/26 16:20:25;;;;;;;2.58;0.90;;;;;;;;;;5042775;28;20045;-79
2023/10/26 16:24:08;;;;;;;1.27;0.60;;;;;;;;;;5050600;28;20051;-78
2023/10/26 16:27:50;;;;;;;7.90;0.90;;;;;;;;;;5045063;28;20110;-78
2023/10/26 16:31:33;;;;;;;2.03;0.55;;;;;;;;;;5041297;28;20404;-77
2023/10/26 16:35:14;;;;;;;2.95;0.80;;;;;;;;;;5046343;28;20053;-78
2023/10/26 16:38:54;;;;;;;1.38;0.70;;;;;;;;;;5051409;28;20044;-80
2023/10/26 16:42:34;;;;;;;2.67;0.70;;;;;;;;;;5047890;28;20044;-78
2023/10/26 16:46:17;;;;;;;4.22;0.70;;;;;;;;;;5040342;28;20080;-78
2023/10/26 16:49:57;;;;;;;2.72;0.70;;;;;;;;;;5049689;28;20075;-78
2023/10/26 16:53:40;;;;;;;1.77;1.00;;;;;;;;;;5059579;28;20040;-79
2023/10/26 16:57:18;;;;;;;7.45;0.93;;;;;;;;;;5038294;28;20519;-81
2023/10/26 17:00:58;;;;;;;3.00;1.02;;;;;;;;;;5043347;28;20123;-82
2023/10/26 17:04:42;;;;;;;1.65;0.93;;;;;;;;;;5036430;28;20045;-79
2023/10/26 17:08:22;;;;;;;3.33;1.30;;;;;;;;;;5050484;28;20049;-81
2023/10/26 17:12:05;;;;;;;0.80;0.70;;;;;;;;;;5040308;28;20080;-83
2023/10/26 17:15:47;;;;;;;2.72;0.90;;;;;;;;;;5056583;28;20142;-79
2023/10/26 17:19:27;;;;;;;2.58;0.93;;;;;;;;;;5051980;28;20029;-76
2023/10/26 17:23:08;;;;;;;2.20;0.88;;;;;;;;;;5051112;28;20076;-79
2023/10/26 17:26:49;;;;;;;2.55;0.90;;;;;;;;;;5042057;28;20473;-80
2023/10/26 17:30:30;;;;;;;2.72;1.13;;;;;;;;;;5041505;28;20121;-79
2023/10/26 17:34:11;;;;;;;4.78;1.13;;;;;;;;;;5054522;28;20062;-78
2023/10/26 17:37:51;;;;;;;4.80;1.00;;;;;;;;;;5040044;28;20056;-77
2023/10/26 17:41:34;;;;;;;2.05;0.82;;;;;;;;;;5034744;28;20385;-74
2023/10/26 17:45:15;;;;;;;6.60;0.90;;;;;;;;;;5039158;28;20041;-75
2023/10/26 17:49:00;;;;;;;4.03;1.30;;;;;;;;;;5050739;28;20052;-75
2023/10/26 17:52:40;;;;;;;7.95;1.10;;;;;;;;;;5045467;28;20113;-76
2023/10/26 17:56:21;;;;;;;3.53;1.15;;;;;;;;;;5051598;28;20076;-73
2023/10/26 18:00:01;;;;;;;7.10;1.10;;;;;;;;;;5037746;28;20132;-76
2023/10/26 18:03:47;;;;;;;6.45;0.88;;;;;;;;;;5035097;28;20499;-74
2023/10/26 18:07:27;;;;;;;4.40;1.00;;;;;;;;;;5038861;28;20049;-75
2023/10/26 18:11:08;;;;;;;6.57;0.90;;;;;;;;;;5037567;28;20049;-77